createdAt,value
2023-10-08T00:01:16.063Z,2.57
2023-10-08T00:03:50.970Z,1.80
2023-10-08T00:06:21.392Z,1.52
2023-10-08T00:08:50.764Z,2.20
2023-10-08T00:11:19.650Z,1.80
2023-10-08T00:13:50.243Z,2.47
2023-10-08T00:16:23.127Z,1.95
2023-10-08T00:18:52.856Z,2.33
2023-10-08T00:21:27.975Z,1.77
2023-10-08T00:24:00.239Z,2.03
2023-10-08T00:26:31.738Z,2.10
2023-10-08T00:29:02.348Z,2.75
2023-10-08T00:31:38.336Z,2.05
2023-10-08T00:34:12.739Z,2.40
2023-10-08T00:36:42.812Z,2.13
2023-10-08T00:39:14.925Z,2.30
2023-10-08T00:41:45.209Z,2.72
2023-10-08T00:44:17.441Z,2.92
2023-10-08T00:46:50.147Z,2.22
2023-10-08T00:49:27.907Z,2.53
2023-10-08T00:52:27.162Z,2.95
2023-10-08T00:55:10.040Z,2.53
2023-10-08T00:57:43.476Z,2.65
2023-10-08T01:00:23.227Z,2.50
2023-10-08T01:03:02.105Z,2.65
2023-10-08T01:05:48.045Z,2.85
2023-10-08T01:08:24.218Z,2.38
2023-10-08T01:11:01.955Z,2.53
2023-10-08T01:13:44.315Z,2.88
2023-10-08T01:16:13.581Z,3.75
2023-10-08T01:18:51.210Z,3.28
2023-10-08T01:21:35.220Z,2.22
2023-10-08T01:24:07.727Z,2.92
2023-10-08T01:26:40.847Z,2.17
2023-10-08T01:29:20.421Z,2.40
2023-10-08T01:31:50.092Z,2.67
2023-10-08T01:34:18.894Z,2.05
2023-10-08T01:36:47.197Z,2.05
2023-10-08T01:39:18.294Z,1.63
2023-10-08T01:41:47.945Z,1.92
2023-10-08T01:44:16.740Z,1.30
2023-10-08T01:46:47.225Z,0.50
2023-10-08T01:49:16.556Z,0.60
2023-10-08T01:51:48.790Z,0.30
2023-10-08T01:54:22.423Z,0.30
2023-10-08T01:56:51.506Z,0.35
2023-10-08T01:59:20.160Z,0.00
2023-10-08T02:01:49.705Z,0.20
2023-10-08T02:04:18.733Z,0.00
2023-10-08T02:06:48.082Z,0.10
2023-10-08T02:09:16.827Z,0.00
2023-10-08T02:11:51.720Z,0.10
2023-10-08T02:14:21.370Z,0.00
2023-10-08T02:16:50.712Z,0.00
2023-10-08T02:19:28.535Z,0.05
2023-10-08T02:21:59.060Z,0.00
2023-10-08T02:24:27.948Z,0.00
2023-10-08T02:26:59.086Z,0.00
2023-10-08T02:29:29.614Z,0.00
2023-10-08T02:31:58.739Z,0.08
2023-10-08T02:34:27.677Z,0.00
2023-10-08T02:36:56.514Z,0.10
2023-10-08T02:39:27.006Z,0.00
2023-10-08T02:42:00.336Z,0.00
2023-10-08T02:44:29.652Z,0.00
2023-10-08T02:46:58.404Z,0.00
2023-10-08T02:49:26.738Z,0.00
2023-10-08T02:51:56.914Z,0.00
2023-10-08T02:54:32.852Z,0.00
2023-10-08T02:57:05.811Z,0.00
2023-10-08T02:59:41.536Z,0.10
2023-10-08T03:02:21.064Z,0.00
2023-10-08T03:04:52.571Z,0.00
2023-10-08T03:07:33.922Z,0.10
2023-10-08T03:10:07.124Z,0.00
2023-10-08T03:12:37.274Z,0.20
2023-10-08T03:15:15.095Z,0.20
2023-10-08T03:17:50.841Z,0.05
2023-10-08T03:20:39.592Z,0.10
2023-10-08T03:23:14.309Z,0.13
2023-10-08T03:25:44.121Z,0.10
2023-10-08T03:28:15.080Z,0.20
2023-10-08T03:30:51.627Z,0.08
2023-10-08T03:33:25.246Z,0.08
2023-10-08T03:35:56.607Z,0.00
2023-10-08T03:38:40.059Z,0.00
2023-10-08T03:41:10.484Z,0.00
2023-10-08T03:43:51.898Z,0.00
2023-10-08T03:46:22.568Z,0.00
2023-10-08T03:48:52.546Z,0.08
2023-10-08T03:51:22.406Z,0.00
2023-10-08T03:54:00.512Z,0.00
2023-10-08T03:56:31.646Z,0.00
2023-10-08T03:59:04.820Z,0.00
2023-10-08T04:01:34.377Z,0.00
2023-10-08T04:04:02.859Z,0.00
2023-10-08T04:06:32.343Z,0.10
2023-10-08T04:09:17.545Z,0.20
2023-10-08T04:11:58.129Z,0.28
2023-10-08T04:14:30.832Z,0.20
2023-10-08T04:17:00.202Z,0.10
2023-10-08T04:19:29.000Z,0.32
2023-10-08T04:21:58.397Z,0.32
2023-10-08T04:24:30.590Z,0.28
2023-10-08T04:26:59.760Z,0.30
2023-10-08T04:29:33.581Z,0.47
2023-10-08T04:32:13.316Z,0.47
2023-10-08T04:34:47.977Z,0.68
2023-10-08T04:37:21.083Z,0.70
2023-10-08T04:39:55.802Z,0.50
2023-10-08T04:42:28.026Z,0.60
2023-10-08T04:44:59.891Z,0.40
2023-10-08T04:47:37.199Z,0.20
2023-10-08T04:50:06.860Z,0.32
2023-10-08T04:52:46.937Z,0.43
2023-10-08T04:55:21.317Z,0.40
2023-10-08T04:57:51.589Z,0.52
2023-10-08T05:00:42.162Z,0.28
2023-10-08T05:03:15.670Z,0.50
2023-10-08T05:06:08.690Z,0.10
2023-10-08T05:08:48.656Z,0.20
2023-10-08T05:11:26.065Z,0.63
2023-10-08T05:14:07.196Z,0.43
2023-10-08T05:16:45.815Z,0.20
2023-10-08T05:19:38.887Z,0.60
2023-10-08T05:22:19.202Z,0.38
2023-10-08T05:25:08.733Z,0.50
2023-10-08T05:27:58.356Z,0.40
2023-10-08T05:30:30.028Z,0.75
2023-10-08T05:33:25.075Z,0.35
2023-10-08T05:36:03.815Z,0.50
2023-10-08T05:38:50.667Z,0.60
2023-10-08T05:41:40.138Z,0.43
2023-10-08T05:44:25.893Z,0.77
2023-10-08T05:50:16.660Z,0.80
2023-10-08T05:52:52.203Z,0.30
2023-10-08T05:58:14.227Z,0.80
2023-10-08T06:01:06.582Z,0.98
2023-10-08T06:03:37.788Z,0.52
2023-10-08T06:06:26.553Z,0.60
2023-10-08T06:09:08.101Z,0.65
2023-10-08T06:11:45.884Z,0.73
2023-10-08T06:14:29.708Z,0.85
2023-10-08T06:17:14.977Z,0.30
2023-10-08T06:19:44.457Z,0.50
2023-10-08T06:22:13.138Z,0.22
2023-10-08T06:24:41.767Z,0.68
2023-10-08T06:27:10.658Z,0.60
2023-10-08T06:29:45.954Z,0.35
2023-10-08T06:32:14.312Z,0.80
2023-10-08T06:34:42.891Z,0.77
2023-10-08T06:37:17.014Z,0.68
2023-10-08T06:39:49.665Z,0.50
2023-10-08T06:42:18.905Z,0.75
2023-10-08T06:44:49.771Z,0.90
2023-10-08T06:47:19.996Z,0.80
2023-10-08T06:49:48.660Z,1.00
2023-10-08T06:52:16.973Z,1.30
2023-10-08T06:54:48.137Z,1.23
2023-10-08T06:57:21.367Z,1.70
2023-10-08T06:59:51.673Z,1.58
2023-10-08T07:02:20.762Z,1.33
2023-10-08T07:04:49.917Z,1.02
2023-10-08T07:07:20.176Z,1.60
2023-10-08T07:09:53.253Z,1.02
2023-10-08T07:12:25.856Z,1.08
2023-10-08T07:14:55.471Z,1.13
2023-10-08T07:17:28.929Z,1.02
2023-10-08T07:19:59.283Z,0.90
2023-10-08T07:22:30.302Z,0.82
2023-10-08T07:25:00.972Z,1.00
2023-10-08T07:27:33.340Z,1.15
2023-10-08T07:30:04.336Z,0.55
2023-10-08T07:32:32.959Z,0.93
2023-10-08T07:35:16.719Z,0.70
2023-10-08T07:37:46.240Z,0.95
2023-10-08T07:40:16.915Z,0.90
2023-10-08T07:42:46.092Z,0.60
2023-10-08T07:45:19.181Z,0.93
2023-10-08T07:47:47.704Z,1.08
2023-10-08T07:50:17.386Z,3.13
2023-10-08T07:52:46.248Z,1.83
2023-10-08T07:55:19.314Z,1.10
2023-10-08T07:57:48.236Z,1.00
2023-10-08T08:00:24.618Z,2.00
2023-10-08T08:02:56.197Z,1.10
2023-10-08T08:05:26.518Z,1.05
2023-10-08T08:07:57.741Z,1.17
2023-10-08T08:10:27.893Z,0.77
2023-10-08T08:12:57.949Z,1.38
2023-10-08T08:15:28.919Z,1.33
2023-10-08T08:17:57.975Z,1.35
2023-10-08T08:20:36.373Z,0.80
2023-10-08T08:23:08.610Z,0.90
2023-10-08T08:25:56.577Z,1.38
2023-10-08T08:28:26.129Z,1.10
2023-10-08T08:30:56.407Z,1.15
2023-10-08T08:33:24.930Z,1.27
2023-10-08T08:36:05.390Z,0.82
2023-10-08T08:38:34.253Z,1.40
2023-10-08T08:41:08.681Z,0.93
2023-10-08T08:43:38.159Z,1.15
2023-10-08T08:46:08.748Z,1.50
2023-10-08T08:48:39.897Z,1.48
2023-10-08T08:51:10.658Z,1.42
2023-10-08T08:53:39.500Z,1.38
2023-10-08T08:56:11.559Z,1.15
2023-10-08T08:58:42.397Z,1.60
2023-10-08T09:01:14.599Z,1.20
2023-10-08T09:03:43.035Z,1.27
2023-10-08T09:06:12.661Z,1.60
2023-10-08T09:08:46.964Z,1.15
2023-10-08T09:11:18.829Z,1.17
2023-10-08T09:13:47.383Z,1.08
2023-10-08T09:16:16.814Z,0.73
2023-10-08T09:18:46.937Z,1.02
2023-10-08T09:21:20.560Z,0.82
2023-10-08T09:23:52.744Z,1.30
2023-10-08T09:26:25.821Z,0.80
2023-10-08T09:28:55.653Z,0.90
2023-10-08T09:31:26.039Z,1.20
2023-10-08T09:33:58.353Z,1.50
2023-10-08T09:36:33.049Z,1.42
2023-10-08T09:39:06.143Z,1.27
2023-10-08T09:41:37.000Z,1.80
2023-10-08T09:44:12.501Z,1.30
2023-10-08T09:46:44.545Z,1.10
2023-10-08T09:49:19.761Z,1.10
2023-10-08T09:51:48.993Z,1.50
2023-10-08T09:54:22.987Z,1.67
2023-10-08T09:56:53.856Z,1.25
2023-10-08T09:59:23.631Z,1.45
2023-10-08T10:01:54.363Z,1.58
2023-10-08T10:04:26.751Z,1.33
2023-10-08T10:06:55.475Z,2.13
2023-10-08T10:09:25.640Z,1.63
2023-10-08T10:11:58.143Z,1.95
2023-10-08T10:14:28.025Z,1.60
2023-10-08T10:17:15.395Z,1.98
2023-10-08T10:19:48.367Z,1.30
2023-10-08T10:22:29.638Z,1.85
2023-10-08T10:25:01.300Z,1.95
2023-10-08T10:27:31.215Z,2.20
2023-10-08T10:30:09.842Z,2.55
2023-10-08T10:32:39.248Z,3.55
2023-10-08T10:35:12.697Z,2.25
2023-10-08T10:37:43.298Z,2.50
2023-10-08T10:40:14.213Z,3.00
2023-10-08T10:42:45.563Z,2.10
2023-10-08T10:45:36.964Z,2.53
2023-10-08T10:48:14.720Z,2.38
2023-10-08T10:50:50.051Z,1.67
2023-10-08T10:53:20.745Z,1.50
2023-10-08T10:55:59.792Z,1.70
2023-10-08T10:58:29.989Z,1.98
2023-10-08T11:01:01.015Z,1.45
2023-10-08T11:03:31.555Z,1.38
2023-10-08T11:06:07.035Z,1.63
2023-10-08T11:08:36.907Z,2.55
2023-10-08T11:11:08.682Z,1.75
2023-10-08T11:13:41.655Z,1.60
2023-10-08T11:16:14.715Z,1.80
2023-10-08T11:18:48.345Z,1.63
2023-10-08T11:21:18.064Z,1.95
2023-10-08T11:23:56.696Z,2.35
2023-10-08T11:26:34.244Z,1.85
2023-10-08T11:29:06.758Z,2.45
2023-10-08T11:31:41.404Z,1.52
2023-10-08T11:34:15.183Z,1.40
2023-10-08T11:36:54.419Z,1.35
2023-10-08T11:39:31.601Z,1.33
2023-10-08T11:42:04.310Z,1.38
2023-10-08T11:44:41.064Z,1.55
2023-10-08T11:47:15.373Z,1.30
2023-10-08T11:49:51.254Z,1.02
2023-10-08T11:54:54.284Z,1.00
2023-10-08T11:57:24.256Z,1.42
2023-10-08T11:59:56.617Z,1.52
2023-10-08T12:02:28.035Z,1.70
2023-10-08T12:04:59.114Z,1.23
2023-10-08T12:07:29.353Z,1.48
2023-10-08T12:09:58.138Z,1.30
2023-10-08T12:12:28.669Z,1.15
2023-10-08T12:14:57.137Z,1.02
2023-10-08T12:17:39.140Z,0.90
2023-10-08T12:20:24.140Z,1.13
2023-10-08T12:22:53.014Z,1.33
2023-10-08T12:25:22.102Z,0.80
2023-10-08T12:27:50.584Z,1.13
2023-10-08T12:30:19.003Z,1.15
2023-10-08T12:32:49.015Z,1.42
2023-10-08T12:35:17.290Z,1.30
2023-10-08T12:37:46.077Z,1.10
2023-10-08T12:40:23.878Z,1.35
2023-10-08T12:42:55.643Z,1.25
2023-10-08T12:45:24.022Z,1.27
2023-10-08T12:47:54.696Z,1.10
2023-10-08T12:50:30.549Z,1.10
2023-10-08T12:53:05.222Z,1.65
2023-10-08T12:55:40.792Z,1.38
2023-10-08T13:00:43.061Z,1.75
2023-10-08T13:03:16.643Z,1.35
2023-10-08T13:05:46.639Z,1.33
2023-10-08T13:08:15.106Z,1.00
2023-10-08T13:10:45.388Z,1.17
2023-10-08T13:13:14.660Z,1.30
2023-10-08T13:15:44.102Z,0.93
2023-10-08T13:18:15.049Z,1.73
2023-10-08T13:20:46.063Z,0.98
2023-10-08T13:23:14.477Z,1.17
2023-10-08T13:25:42.933Z,1.35
2023-10-08T13:28:12.831Z,1.27
2023-10-08T13:30:41.413Z,1.02
2023-10-08T13:33:10.988Z,0.90
2023-10-08T13:35:40.848Z,1.10
2023-10-08T13:38:14.726Z,1.58
2023-10-08T13:41:03.039Z,1.20
2023-10-08T13:43:35.721Z,1.50
2023-10-08T13:46:07.647Z,1.10
2023-10-08T13:48:36.984Z,1.20
2023-10-08T13:51:15.289Z,1.70
2023-10-08T13:53:46.525Z,1.20
2023-10-08T13:56:16.119Z,1.25
2023-10-08T13:58:47.382Z,0.98
2023-10-08T14:01:22.654Z,0.82
2023-10-08T14:03:54.809Z,1.08
2023-10-08T14:06:26.966Z,1.30
2023-10-08T14:08:56.069Z,1.55
2023-10-08T14:11:25.772Z,1.00
2023-10-08T14:13:54.090Z,0.95
2023-10-08T14:16:24.628Z,0.57
2023-10-08T14:18:55.998Z,0.90
2023-10-08T14:21:25.977Z,1.05
2023-10-08T14:23:54.608Z,0.90
2023-10-08T14:26:23.850Z,1.15
2023-10-08T14:28:58.560Z,1.02
2023-10-08T14:31:28.109Z,0.73
2023-10-08T14:34:06.764Z,1.10
2023-10-08T14:36:54.237Z,0.80
2023-10-08T14:39:54.589Z,1.48
2023-10-08T14:42:40.470Z,1.10
2023-10-08T14:45:12.509Z,1.60
2023-10-08T14:47:42.350Z,1.40
2023-10-08T14:50:17.314Z,1.60
2023-10-08T14:52:47.830Z,1.10
2023-10-08T14:55:17.124Z,1.15
2023-10-08T14:57:46.183Z,1.30
2023-10-08T15:00:15.151Z,1.45
2023-10-08T15:02:43.989Z,0.90
2023-10-08T15:05:12.393Z,1.42
2023-10-08T15:07:40.676Z,1.58
2023-10-08T15:10:11.951Z,1.45
2023-10-08T15:12:40.580Z,1.58
2023-10-08T15:15:14.950Z,3.35
2023-10-08T15:17:44.613Z,1.90
2023-10-08T15:20:15.691Z,1.92
2023-10-08T15:22:44.716Z,1.80
2023-10-08T15:25:18.131Z,1.70
2023-10-08T15:27:48.772Z,1.70
2023-10-08T15:30:20.402Z,2.13
2023-10-08T15:32:50.086Z,1.90
2023-10-08T15:35:21.253Z,1.63
2023-10-08T15:37:50.275Z,2.67
2023-10-08T15:40:20.355Z,1.30
2023-10-08T15:42:52.834Z,1.30
2023-10-08T15:45:22.140Z,1.15
2023-10-08T15:47:51.624Z,1.40
2023-10-08T15:50:22.307Z,2.38
2023-10-08T15:52:51.243Z,1.52
2023-10-08T15:55:23.276Z,1.90
2023-10-08T15:57:52.417Z,1.75
2023-10-08T16:00:21.473Z,1.83
2023-10-08T16:02:50.081Z,2.00
2023-10-08T16:05:19.307Z,2.17
2023-10-08T16:07:47.952Z,1.77
2023-10-08T16:10:16.598Z,2.22
2023-10-08T16:12:46.217Z,1.70
2023-10-08T16:15:15.709Z,2.33
2023-10-08T16:17:44.940Z,2.78
2023-10-08T16:20:16.751Z,2.60
2023-10-08T16:22:46.803Z,2.63
2023-10-08T16:25:16.994Z,3.05
2023-10-08T16:27:50.449Z,2.53
2023-10-08T16:30:24.295Z,2.38
2023-10-08T16:32:53.680Z,2.67
2023-10-08T16:35:22.388Z,2.53
2023-10-08T16:37:50.715Z,3.20
2023-10-08T16:40:20.026Z,7.68
2023-10-08T16:42:50.325Z,2.83
2023-10-08T16:45:19.072Z,2.58
2023-10-08T16:47:47.798Z,2.28
2023-10-08T16:50:18.158Z,3.63
2023-10-08T16:52:49.387Z,3.17
2023-10-08T16:55:18.212Z,2.22
2023-10-08T16:57:46.560Z,3.25
2023-10-08T17:00:16.910Z,3.45
2023-10-08T17:02:45.511Z,3.45
2023-10-08T17:05:16.443Z,2.63
2023-10-08T17:07:46.310Z,2.97
2023-10-08T17:10:15.684Z,2.50
2023-10-08T17:12:44.094Z,3.05
2023-10-08T17:15:14.421Z,2.88
2023-10-08T17:17:44.597Z,3.22
2023-10-08T17:20:18.216Z,2.75
2023-10-08T17:22:47.216Z,2.67
2023-10-08T17:25:16.446Z,3.40
2023-10-08T17:27:48.047Z,3.20
2023-10-08T17:30:21.365Z,2.92
2023-10-08T17:32:53.298Z,2.40
2023-10-08T17:35:22.034Z,2.22
2023-10-08T17:37:50.711Z,2.25
2023-10-08T17:40:19.044Z,2.40
2023-10-08T17:42:47.856Z,2.80
2023-10-08T17:45:16.870Z,2.53
2023-10-08T17:47:47.069Z,3.33
2023-10-08T17:50:17.490Z,2.55
2023-10-08T17:52:47.766Z,2.45
2023-10-08T17:55:17.887Z,1.88
2023-10-08T17:57:47.215Z,2.25
2023-10-08T18:00:18.505Z,2.35
2023-10-08T18:02:47.392Z,1.83
2023-10-08T18:05:20.506Z,2.03
2023-10-08T18:07:50.981Z,2.15
2023-10-08T18:10:21.881Z,1.90
2023-10-08T18:12:51.877Z,1.67
2023-10-08T18:15:23.968Z,1.90
2023-10-08T18:17:54.528Z,1.70
2023-10-08T18:20:34.511Z,2.15
2023-10-08T18:23:03.748Z,1.98
2023-10-08T18:25:32.827Z,1.13
2023-10-08T18:28:02.676Z,2.13
2023-10-08T18:30:31.973Z,1.80
2023-10-08T18:33:01.163Z,2.00
2023-10-08T18:35:32.165Z,1.38
2023-10-08T18:38:01.844Z,1.38
2023-10-08T18:40:33.432Z,2.25
2023-10-08T18:43:02.315Z,1.77
2023-10-08T18:45:30.987Z,2.00
2023-10-08T18:47:59.724Z,1.88
2023-10-08T18:50:28.610Z,1.85
2023-10-08T18:52:58.273Z,1.65
2023-10-08T18:55:39.090Z,3.10
2023-10-08T18:58:18.897Z,2.13
2023-10-08T19:00:49.398Z,1.73
2023-10-08T19:03:17.828Z,1.50
2023-10-08T19:05:46.317Z,2.47
2023-10-08T19:08:16.040Z,1.63
2023-10-08T19:10:44.726Z,2.00
2023-10-08T19:13:13.345Z,2.30
2023-10-08T19:15:41.604Z,3.20
2023-10-08T19:18:11.171Z,2.38
2023-10-08T19:20:40.607Z,1.95
2023-10-08T19:23:09.751Z,1.55
2023-10-08T19:25:40.928Z,1.90
2023-10-08T19:28:12.202Z,1.73
2023-10-08T19:30:43.069Z,1.92
2023-10-08T19:33:14.423Z,1.88
2023-10-08T19:35:46.020Z,2.00
2023-10-08T19:38:14.907Z,1.52
2023-10-08T19:40:44.525Z,1.63
2023-10-08T19:43:12.781Z,1.95
2023-10-08T19:45:42.470Z,2.35
2023-10-08T19:48:11.942Z,1.90
2023-10-08T19:50:42.643Z,1.75
2023-10-08T19:53:12.198Z,1.73
2023-10-08T19:55:48.098Z,1.45
2023-10-08T19:58:18.196Z,2.10
2023-10-08T20:00:46.558Z,2.70
2023-10-08T20:03:15.857Z,1.30
2023-10-08T20:05:44.999Z,1.60
2023-10-08T20:08:13.262Z,1.60
2023-10-08T20:10:42.243Z,1.30
2023-10-08T20:13:12.417Z,1.42
2023-10-08T20:15:40.857Z,1.45
2023-10-08T20:18:09.477Z,1.65
2023-10-08T20:20:37.746Z,1.08
2023-10-08T20:23:07.523Z,1.88
2023-10-08T20:25:38.044Z,1.42
2023-10-08T20:28:08.054Z,2.00
2023-10-08T20:30:41.194Z,1.42
2023-10-08T20:33:11.415Z,1.50
2023-10-08T20:35:40.707Z,2.30
2023-10-08T20:38:10.591Z,1.50
2023-10-08T20:40:43.744Z,1.67
2023-10-08T20:43:12.950Z,2.17
2023-10-08T20:45:43.228Z,1.58
2023-10-08T20:48:15.292Z,1.30
2023-10-08T20:50:46.062Z,1.30
2023-10-08T20:53:16.888Z,1.25
2023-10-08T20:55:46.745Z,1.50
2023-10-08T20:58:18.939Z,1.60
2023-10-08T21:00:49.154Z,1.95
2023-10-08T21:03:18.349Z,1.80
2023-10-08T21:05:48.220Z,1.58
2023-10-08T21:08:17.608Z,2.00
2023-10-08T21:10:59.894Z,1.98
2023-10-08T21:13:31.138Z,2.05
2023-10-08T21:16:03.038Z,1.77
2023-10-08T21:18:32.806Z,2.20
2023-10-08T21:21:04.637Z,1.75
2023-10-08T21:23:34.198Z,1.73
2023-10-08T21:26:03.026Z,1.55
2023-10-08T21:28:31.842Z,1.63
2023-10-08T21:31:08.570Z,1.73
2023-10-08T21:33:37.036Z,2.10
2023-10-08T21:36:05.918Z,2.15
2023-10-08T21:38:35.085Z,2.33
2023-10-08T21:41:03.699Z,2.17
2023-10-08T21:43:31.986Z,1.85
2023-10-08T21:46:01.894Z,1.90
2023-10-08T21:48:30.898Z,2.85
2023-10-08T21:50:59.636Z,2.22
2023-10-08T21:53:27.961Z,2.00
2023-10-08T21:55:56.427Z,2.33
2023-10-08T21:58:25.072Z,2.00
2023-10-08T22:01:10.488Z,2.60
2023-10-08T22:03:42.211Z,2.22
2023-10-08T22:06:11.334Z,2.40
2023-10-08T22:08:39.899Z,2.03
2023-10-08T22:11:09.260Z,2.30
2023-10-08T22:13:38.772Z,1.88
2023-10-08T22:16:18.623Z,2.25
2023-10-08T22:18:57.372Z,2.50
2023-10-08T22:21:29.977Z,1.83
2023-10-08T22:24:00.781Z,2.80
2023-10-08T22:26:30.692Z,1.92
2023-10-08T22:28:59.588Z,1.73
2023-10-08T22:31:29.773Z,2.47
2023-10-08T22:34:06.078Z,2.67
2023-10-08T22:36:42.879Z,2.67
2023-10-08T22:39:13.179Z,2.80
2023-10-08T22:41:46.252Z,3.42
2023-10-08T22:44:15.615Z,3.40
2023-10-08T22:46:46.018Z,2.10
2023-10-08T22:49:22.119Z,2.10
2023-10-08T22:51:51.677Z,1.63
2023-10-08T22:54:20.576Z,2.25
2023-10-08T22:56:51.333Z,1.73
2023-10-08T22:59:21.247Z,2.63
2023-10-08T23:01:54.653Z,2.30
2023-10-08T23:04:26.519Z,2.33
2023-10-08T23:06:56.448Z,1.63
2023-10-08T23:09:27.323Z,2.00
2023-10-08T23:11:57.180Z,2.72
2023-10-08T23:14:26.064Z,2.65
2023-10-08T23:16:57.399Z,2.15
2023-10-08T23:19:29.379Z,3.22
2023-10-08T23:21:58.636Z,2.58
2023-10-08T23:24:27.508Z,2.33
2023-10-08T23:26:56.907Z,2.03
2023-10-08T23:29:25.695Z,2.08
2023-10-08T23:31:56.403Z,2.45
2023-10-08T23:34:26.520Z,3.83
2023-10-08T23:36:58.199Z,2.25
2023-10-08T23:39:36.892Z,1.80
2023-10-08T23:42:21.922Z,1.80
2023-10-08T23:44:51.231Z,1.58
2023-10-08T23:47:28.406Z,2.10
2023-10-08T23:50:11.811Z,1.80
2023-10-08T23:52:40.093Z,1.80
2023-10-08T23:55:25.301Z,1.85
